Flight Track Log - Related Links

Times and Time Zones

All times are in EDT time to prevent confusion due to time zone crossing. See the UCA3600 flight status page for this flight to view local times or setup timezone preferences in your user account.

Time Position Orientation Groundspeed Altitude Reporting Facility
EDT Latitude Longitude Course Direction KTS MPH feet Rate Location/Type
10:23AM 38.1667 -78.4500 38° Northeast 134 154 1,600  Level Potomac TRACON
10:24AM 38.2000 -78.4167 38° Northeast 192 221 2,600 900 Climbing Potomac TRACON
10:25AM 38.2297 -78.4025 21° North 187 215 3,100 1,137 Climbing Washington Center
10:26AM 38.2739 -78.3436 46° Northeast 208 239 4,400 912 Climbing Washington Center
10:27AM 38.3144 -78.2903 46° Northeast 219 252 5,000 288 Climbing Washington Center
10:28AM 38.3683 -78.2217 45° Northeast 264 304 5,000  Level Washington Center
10:29AM 38.4225 -78.1503 46° Northeast 276 318 5,000  Level Washington Center
10:30AM 38.4783 -78.0781 45° Northeast 280 322 5,000  Level Washington Center
10:31AM 38.5211 -77.9814 60° Northeast 273 314 5,000  Level Washington Center
10:32AM 38.5406 -77.8911 75° East 267 307 5,000 -49 Level Washington Center
10:33AM 38.5619 -77.7942 74° East 266 306 4,900 -336 Descending Washington Center
10:34AM 38.5792 -77.7011 77° East 269 310 4,300 -429 Descending Washington Center
10:35AM 38.5997 -77.5989 76° East 275 316 4,000 -144 Descending Washington Center
10:36AM 38.6253 -77.5106 70° East 264 304 4,000  Level Washington Center
10:37AM 38.6667 -77.4333 56° Northeast 264 304 4,000  Level Potomac TRACON
10:38AM 38.7167 -77.3667 46° Northeast 268 308 4,000 -300 Level Potomac TRACON
10:39AM 38.8000 -77.3500 North 279 321 3,400 -500 Descending Potomac TRACON
10:40AM 38.8667 -77.3500 360° North 275 316 3,000 -211 Descending Potomac TRACON
10:41AM 38.9500 -77.3500 360° North 268 308 3,000 -209 Level Potomac TRACON
10:42AM 39.0167 -77.3500 360° North 233 268 2,600 -496 Descending Potomac TRACON
10:43AM 39.0500 -77.3833 322° Northwest 215 247 2,000 -300 Descending Potomac TRACON
10:44AM 39.0333 -77.4333 247° West 169 194 2,000 -500 Level Potomac TRACON
10:45AM 38.9833 -77.4333 180° South 128 147 1,000 -1,000 Descending Potomac TRACON
10:47AM 38.9474 -77.4599 57° Northeast  Level Estimated
10:54AM 38.9474 -77.4599 57° Northeast  Level Estimated
10:55AM 38.9474 -77.4599 151° Southeast  Level Estimated

Login

Don't have an account? Register now (free) for customized features, flight alerts, and more!